createdAt,value
2019-05-30T00:00:23.111Z,58.09
2019-05-30T00:01:23.078Z,58.70
2019-05-30T00:02:23.064Z,58.62
2019-05-30T00:03:23.054Z,58.19
2019-05-30T00:04:23.043Z,58.09
2019-05-30T00:05:23.060Z,58.22
2019-05-30T00:06:23.021Z,59.14
2019-05-30T00:07:23.010Z,59.55
2019-05-30T00:08:22.998Z,59.23
2019-05-30T00:09:22.988Z,59.34
2019-05-30T00:10:23.015Z,59.44
2019-05-30T00:11:22.967Z,59.23
2019-05-30T00:12:22.955Z,59.34
2019-05-30T00:13:22.958Z,59.44
2019-05-30T00:14:22.933Z,59.03
2019-05-30T00:15:22.923Z,59.64
2019-05-30T00:16:22.948Z,59.34
2019-05-30T00:17:22.901Z,59.44
2019-05-30T00:18:22.893Z,59.34
2019-05-30T00:19:22.886Z,59.23
2019-05-30T00:20:22.870Z,59.64
2019-05-30T00:21:22.857Z,59.55
2019-05-30T00:22:22.884Z,59.57
2019-05-30T00:23:22.835Z,59.47
2019-05-30T00:24:22.826Z,59.67
2019-05-30T00:25:22.816Z,59.98
2019-05-30T00:26:22.803Z,60.60
2019-05-30T00:27:22.791Z,60.39
2019-05-30T00:28:22.805Z,60.39
2019-05-30T00:29:22.770Z,60.49
2019-05-30T00:30:24.706Z,60.93
2019-05-30T00:31:22.749Z,61.03
2019-05-30T00:32:22.739Z,61.00
2019-05-30T00:33:22.763Z,60.90
2019-05-30T00:34:22.714Z,60.80
2019-05-30T00:35:22.721Z,60.69
2019-05-30T00:36:22.694Z,61.31
2019-05-30T00:37:22.687Z,60.60
2019-05-30T00:38:22.673Z,61.10
2019-05-30T00:39:22.699Z,60.69
2019-05-30T00:40:22.651Z,61.00
2019-05-30T00:41:22.644Z,61.00
2019-05-30T00:42:22.644Z,60.80
2019-05-30T00:43:22.618Z,61.51
2019-05-30T00:44:22.608Z,61.00
2019-05-30T00:45:22.621Z,60.90
2019-05-30T00:46:22.587Z,61.00
2019-05-30T00:47:22.574Z,61.31
2019-05-30T00:48:22.564Z,61.00
2019-05-30T00:49:22.568Z,61.13
2019-05-30T00:50:22.578Z,61.54
2019-05-30T00:51:22.531Z,61.65
2019-05-30T00:52:22.523Z,61.65
2019-05-30T00:53:22.509Z,61.65
2019-05-30T00:54:22.498Z,61.85
2019-05-30T00:55:22.487Z,62.66
2019-05-30T00:56:22.513Z,62.66
2019-05-30T00:57:22.465Z,62.90
2019-05-30T00:58:22.454Z,63.07
2019-05-30T00:59:22.442Z,62.77
2019-05-30T01:00:22.433Z,62.98
2019-05-30T01:01:22.424Z,62.98
2019-05-30T01:02:22.449Z,63.18
2019-05-30T01:03:22.401Z,63.07
2019-05-30T01:04:22.392Z,62.46
2019-05-30T01:05:22.378Z,62.46
2019-05-30T01:06:22.378Z,62.46
2019-05-30T01:07:22.358Z,62.90
2019-05-30T01:08:22.377Z,62.70
2019-05-30T01:09:22.337Z,62.98
2019-05-30T01:10:22.351Z,63.21
2019-05-30T01:11:22.316Z,63.31
2019-05-30T01:12:22.304Z,63.00
2019-05-30T01:13:22.292Z,62.90
2019-05-30T01:14:22.293Z,63.41
2019-05-30T01:15:22.298Z,62.90
2019-05-30T01:16:22.264Z,62.83
2019-05-30T01:17:22.251Z,62.90
2019-05-30T01:18:22.239Z,62.73
2019-05-30T01:19:22.236Z,62.90
2019-05-30T01:20:22.248Z,62.90
2019-05-30T01:21:22.206Z,63.00
2019-05-30T01:22:22.204Z,62.93
2019-05-30T01:23:22.186Z,63.13
2019-05-30T01:24:22.174Z,63.65
2019-05-30T01:25:22.189Z,63.54
2019-05-30T01:26:22.153Z,63.34
2019-05-30T01:27:22.142Z,63.10
2019-05-30T01:28:22.132Z,63.00
2019-05-30T01:29:22.122Z,63.00
2019-05-30T01:30:22.138Z,63.62
2019-05-30T01:31:22.098Z,63.00
2019-05-30T01:32:22.093Z,63.00
2019-05-30T01:33:22.079Z,63.21
2019-05-30T01:34:22.069Z,63.03
2019-05-30T01:35:22.081Z,63.75
2019-05-30T01:36:22.047Z,63.54
2019-05-30T01:37:22.035Z,64.36
2019-05-30T01:38:22.030Z,64.90
2019-05-30T01:39:22.011Z,64.60
2019-05-30T01:40:22.028Z,65.21
2019-05-30T01:41:21.991Z,64.80
2019-05-30T01:42:21.983Z,65.42
2019-05-30T01:43:21.969Z,65.45
2019-05-30T01:44:21.962Z,65.14
2019-05-30T01:45:21.973Z,65.21
2019-05-30T01:46:21.938Z,64.94
2019-05-30T01:47:21.926Z,65.24
2019-05-30T01:48:21.918Z,65.75
2019-05-30T01:49:21.904Z,65.21
2019-05-30T01:50:21.919Z,64.70
2019-05-30T01:51:21.891Z,65.14
2019-05-30T01:52:28.910Z,64.80
2019-05-30T01:53:21.869Z,64.80
2019-05-30T01:54:21.851Z,65.01
2019-05-30T01:55:21.867Z,66.06
2019-05-30T01:56:21.830Z,65.96
2019-05-30T01:57:21.819Z,65.75
2019-05-30T01:58:21.808Z,65.72
2019-05-30T01:59:21.806Z,65.75
2019-05-30T02:00:21.816Z,65.72
2019-05-30T02:01:24.983Z,65.75
2019-05-30T02:02:21.769Z,66.37
2019-05-30T02:03:21.753Z,66.16
2019-05-30T02:04:21.741Z,66.27
2019-05-30T02:05:21.757Z,66.91
2019-05-30T02:06:21.722Z,67.02
2019-05-30T02:07:21.711Z,66.91
2019-05-30T02:08:21.723Z,67.02
2019-05-30T02:09:21.692Z,67.43
2019-05-30T02:10:21.705Z,67.22
2019-05-30T02:11:21.672Z,67.11
2019-05-30T02:12:21.657Z,67.11
2019-05-30T02:13:21.667Z,67.22
2019-05-30T02:14:21.640Z,67.32
2019-05-30T02:15:21.647Z,67.52
2019-05-30T02:16:21.612Z,67.66
2019-05-30T02:17:21.599Z,67.86
2019-05-30T02:18:21.589Z,67.83
2019-05-30T02:19:21.576Z,67.83
2019-05-30T02:20:21.590Z,67.94
2019-05-30T02:21:21.559Z,67.63
2019-05-30T02:22:21.548Z,67.22
2019-05-30T02:23:21.534Z,67.52
2019-05-30T02:24:21.526Z,67.11
2019-05-30T02:25:21.536Z,67.22
2019-05-30T02:26:21.504Z,67.52
2019-05-30T02:27:21.491Z,67.32
2019-05-30T02:28:21.479Z,66.71
2019-05-30T02:29:21.467Z,67.02
2019-05-30T02:30:21.485Z,66.81
2019-05-30T02:31:37.596Z,66.84
2019-05-30T02:32:22.437Z,66.84
2019-05-30T02:33:21.426Z,67.56
2019-05-30T02:34:21.418Z,66.53
2019-05-30T02:35:21.441Z,67.14
2019-05-30T02:36:21.393Z,66.84
2019-05-30T02:37:21.381Z,66.74
2019-05-30T02:38:21.369Z,67.56
2019-05-30T02:39:21.358Z,67.56
2019-05-30T02:40:21.380Z,67.86
2019-05-30T02:41:21.337Z,68.07
2019-05-30T02:42:21.325Z,67.66
2019-05-30T02:43:21.318Z,67.90
2019-05-30T02:44:21.305Z,68.17
2019-05-30T02:45:21.317Z,67.86
2019-05-30T02:46:21.281Z,67.97
2019-05-30T02:47:22.537Z,67.49
2019-05-30T02:48:21.262Z,67.59
2019-05-30T02:49:21.255Z,67.25
2019-05-30T02:50:21.267Z,67.35
2019-05-30T02:51:21.231Z,67.14
2019-05-30T02:52:21.218Z,67.46
2019-05-30T02:53:21.210Z,68.07
2019-05-30T02:54:21.198Z,67.56
2019-05-30T02:55:21.224Z,67.35
2019-05-30T02:56:21.182Z,67.46
2019-05-30T02:57:21.165Z,67.25
2019-05-30T02:58:21.156Z,67.14
2019-05-30T02:59:21.194Z,67.14
2019-05-30T03:00:21.258Z,67.90
2019-05-30T03:01:21.189Z,68.10
2019-05-30T03:02:21.177Z,68.30
2019-05-30T03:03:21.112Z,68.07
2019-05-30T03:04:21.091Z,68.41
2019-05-30T03:05:21.118Z,68.21
2019-05-30T03:06:21.076Z,68.21
2019-05-30T03:07:21.058Z,68.10
2019-05-30T03:08:21.050Z,68.21
2019-05-30T03:09:21.038Z,68.00
2019-05-30T03:10:21.055Z,68.10
2019-05-30T03:11:21.018Z,68.92
2019-05-30T03:12:21.007Z,68.82
2019-05-30T03:13:20.996Z,68.82
2019-05-30T03:14:20.991Z,68.51
2019-05-30T03:15:21.002Z,69.43
2019-05-30T03:16:20.962Z,69.02
2019-05-30T03:17:20.955Z,69.23
2019-05-30T03:18:20.945Z,69.23
2019-05-30T03:19:20.944Z,69.33
2019-05-30T03:20:23.213Z,69.13
2019-05-30T03:21:20.919Z,68.96
2019-05-30T03:22:20.900Z,69.26
2019-05-30T03:23:20.895Z,69.13
2019-05-30T03:24:20.876Z,69.13
2019-05-30T03:25:20.910Z,69.13
2019-05-30T03:26:20.864Z,69.64
2019-05-30T03:27:20.851Z,69.43
2019-05-30T03:28:20.836Z,69.16
2019-05-30T03:29:20.841Z,69.54
2019-05-30T03:30:27.513Z,69.43
2019-05-30T03:31:28.742Z,69.64
2019-05-30T03:33:37.996Z,69.74
2019-05-30T03:34:27.427Z,69.64
2019-05-30T03:35:29.486Z,69.33
2019-05-30T03:36:29.586Z,69.33
2019-05-30T03:37:28.590Z,69.13
2019-05-30T03:38:21.731Z,69.43
2019-05-30T03:39:20.718Z,69.13
2019-05-30T03:40:22.809Z,69.13
2019-05-30T03:41:20.703Z,69.13
2019-05-30T03:42:20.687Z,69.64
2019-05-30T03:43:20.678Z,69.26
2019-05-30T03:44:20.669Z,69.64
2019-05-30T03:45:20.682Z,69.57
2019-05-30T03:46:20.650Z,69.64
2019-05-30T03:47:20.635Z,69.43
2019-05-30T03:48:20.627Z,69.64
2019-05-30T03:49:20.613Z,69.33
2019-05-30T03:50:20.630Z,69.74
2019-05-30T03:51:20.591Z,69.84
2019-05-30T03:52:20.586Z,69.33
2019-05-30T03:53:20.574Z,69.13
2019-05-30T03:54:20.562Z,69.33
2019-05-30T03:55:20.591Z,69.54
2019-05-30T03:56:20.542Z,69.43
2019-05-30T03:57:20.528Z,69.33
2019-05-30T03:58:20.890Z,69.23
2019-05-30T03:59:20.508Z,69.64
2019-05-30T04:00:20.538Z,69.74
2019-05-30T04:01:20.486Z,69.47
2019-05-30T04:02:20.481Z,69.67
2019-05-30T04:03:20.466Z,69.67
2019-05-30T04:04:20.457Z,69.43
2019-05-30T04:05:20.471Z,69.64
2019-05-30T04:06:20.441Z,69.43
2019-05-30T04:07:20.425Z,69.64
2019-05-30T04:08:20.415Z,69.33
2019-05-30T04:09:24.221Z,69.54
2019-05-30T04:10:20.418Z,69.54
2019-05-30T04:11:20.389Z,69.43
2019-05-30T04:12:20.373Z,69.43
2019-05-30T04:13:20.363Z,68.92
2019-05-30T04:14:20.348Z,69.02
2019-05-30T04:15:20.369Z,68.99
2019-05-30T04:16:20.328Z,69.23
2019-05-30T04:17:20.317Z,69.23
2019-05-30T04:18:20.348Z,68.72
2019-05-30T04:19:20.357Z,68.79
2019-05-30T04:20:22.862Z,68.51
2019-05-30T04:21:21.681Z,68.38
2019-05-30T04:22:20.267Z,68.48
2019-05-30T04:23:20.257Z,68.59
2019-05-30T04:24:20.245Z,68.59
2019-05-30T04:25:20.266Z,68.59
2019-05-30T04:26:20.254Z,68.68
2019-05-30T04:27:20.213Z,67.86
2019-05-30T04:28:20.202Z,67.97
2019-05-30T04:29:20.198Z,67.86
2019-05-30T04:30:20.207Z,68.07
2019-05-30T04:31:20.173Z,68.07
2019-05-30T04:32:20.160Z,68.14
2019-05-30T04:33:32.648Z,67.63
2019-05-30T04:34:21.141Z,67.73
2019-05-30T04:35:20.153Z,67.52
2019-05-30T04:36:20.127Z,67.43
2019-05-30T04:37:20.106Z,67.43
2019-05-30T04:38:20.098Z,67.52
2019-05-30T04:39:20.086Z,67.32
2019-05-30T04:40:20.099Z,67.11
2019-05-30T04:41:21.002Z,67.32
2019-05-30T04:42:20.777Z,67.49
2019-05-30T04:43:20.439Z,67.19
2019-05-30T04:44:20.501Z,67.08
2019-05-30T04:45:20.400Z,66.47
2019-05-30T04:46:21.902Z,66.75
2019-05-30T04:47:20.883Z,66.24
2019-05-30T04:48:21.298Z,66.37
2019-05-30T04:49:21.630Z,66.47
2019-05-30T04:50:20.681Z,65.96
2019-05-30T04:51:21.671Z,65.42
2019-05-30T04:52:24.355Z,65.72
2019-05-30T04:53:21.020Z,65.52
2019-05-30T04:54:21.376Z,64.77
2019-05-30T04:55:22.729Z,64.57
2019-05-30T04:56:21.974Z,65.01
2019-05-30T04:57:25.741Z,64.87
2019-05-30T04:58:23.961Z,64.57
2019-05-30T04:59:21.665Z,64.98
2019-05-30T05:00:21.316Z,65.08
2019-05-30T05:01:20.607Z,65.18
2019-05-30T05:02:21.120Z,64.64
2019-05-30T05:03:41.643Z,64.03
2019-05-30T05:04:21.632Z,64.54
2019-05-30T05:05:25.955Z,64.33
2019-05-30T05:06:21.989Z,63.41
2019-05-30T05:07:19.938Z,63.62
2019-05-30T05:08:19.962Z,64.30
2019-05-30T05:09:20.249Z,63.39
2019-05-30T05:10:20.441Z,63.18
2019-05-30T05:11:22.942Z,63.07
2019-05-30T05:12:20.726Z,63.48
2019-05-30T05:13:20.431Z,62.87
2019-05-30T05:14:20.568Z,62.84
2019-05-30T05:15:20.676Z,63.04
2019-05-30T05:16:31.012Z,62.87
2019-05-30T05:17:20.997Z,62.84
2019-05-30T05:18:21.001Z,61.92
2019-05-30T05:19:21.808Z,62.13
2019-05-30T05:20:19.667Z,62.13
2019-05-30T05:21:19.628Z,62.13
2019-05-30T05:22:19.616Z,62.13
2019-05-30T05:23:19.605Z,62.63
2019-05-30T05:24:19.593Z,62.33
2019-05-30T05:25:19.611Z,62.10
2019-05-30T05:26:19.581Z,61.69
2019-05-30T05:27:19.734Z,60.97
2019-05-30T05:28:19.984Z,61.28
2019-05-30T05:29:19.923Z,60.97
2019-05-30T05:30:20.203Z,61.08
2019-05-30T05:31:20.384Z,61.28
2019-05-30T05:32:20.457Z,61.25
2019-05-30T05:33:20.560Z,60.85
2019-05-30T05:34:20.625Z,61.56
2019-05-30T05:35:20.774Z,61.22
2019-05-30T05:36:19.465Z,61.02
2019-05-30T05:37:19.455Z,60.21
2019-05-30T05:38:20.143Z,60.21
2019-05-30T05:39:20.078Z,60.21
2019-05-30T05:40:20.170Z,60.61
2019-05-30T05:41:20.174Z,60.17
2019-05-30T05:42:20.215Z,59.46
2019-05-30T05:43:20.294Z,59.89
2019-05-30T05:44:20.372Z,59.80
2019-05-30T05:45:20.538Z,59.56
2019-05-30T05:46:20.350Z,59.66
2019-05-30T05:47:20.463Z,59.87
2019-05-30T05:48:20.457Z,59.59
2019-05-30T05:49:20.506Z,59.56
2019-05-30T05:50:20.476Z,59.36
2019-05-30T05:51:20.630Z,59.46
2019-05-30T05:52:19.293Z,58.75
2019-05-30T05:53:19.280Z,58.85
2019-05-30T05:54:19.269Z,59.36
2019-05-30T05:55:19.284Z,58.95
2019-05-30T05:56:19.254Z,58.95
2019-05-30T05:57:19.239Z,58.82
2019-05-30T05:58:19.230Z,59.43
2019-05-30T05:59:19.215Z,59.03
2019-05-30T06:00:19.238Z,58.82
2019-05-30T06:01:19.446Z,59.23
2019-05-30T06:02:19.375Z,57.98
2019-05-30T06:03:20.277Z,58.59
2019-05-30T06:04:19.187Z,58.39
2019-05-30T06:05:20.165Z,58.18
2019-05-30T06:06:19.269Z,58.28
2019-05-30T06:07:20.226Z,57.78
2019-05-30T06:08:19.482Z,57.98
2019-05-30T06:09:20.507Z,57.67
2019-05-30T06:10:19.531Z,57.67
2019-05-30T06:11:19.085Z,57.65
2019-05-30T06:12:19.679Z,57.95
2019-05-30T06:13:19.063Z,57.65
2019-05-30T06:14:19.839Z,57.75
2019-05-30T06:15:19.065Z,56.73
2019-05-30T06:16:19.899Z,56.20
2019-05-30T06:17:19.077Z,56.40
2019-05-30T06:18:20.173Z,55.68
2019-05-30T06:19:19.284Z,56.47
2019-05-30T06:20:19.263Z,56.40
2019-05-30T06:21:19.176Z,55.76
2019-05-30T06:22:19.322Z,55.66
2019-05-30T06:23:19.514Z,56.07
2019-05-30T06:24:19.596Z,56.14
2019-05-30T06:25:21.839Z,55.76
2019-05-30T06:26:20.074Z,56.04
2019-05-30T06:27:20.128Z,56.14
2019-05-30T06:28:19.967Z,55.53
2019-05-30T06:29:20.021Z,55.33
2019-05-30T06:30:20.236Z,54.51
2019-05-30T06:31:18.869Z,54.51
2019-05-30T06:32:18.858Z,55.53
2019-05-30T06:33:18.845Z,54.72
2019-05-30T06:34:31.367Z,56.04
2019-05-30T06:35:21.403Z,55.40
2019-05-30T06:36:18.891Z,55.51
2019-05-30T06:37:19.185Z,55.71
2019-05-30T06:38:19.099Z,55.18
2019-05-30T06:39:19.241Z,55.38
2019-05-30T06:40:19.462Z,54.57
2019-05-30T06:41:19.386Z,53.75
2019-05-30T06:42:19.541Z,54.16
2019-05-30T06:43:19.870Z,53.72
2019-05-30T06:44:19.793Z,53.93
2019-05-30T06:45:20.586Z,53.39
2019-05-30T06:46:20.038Z,53.39
2019-05-30T06:47:18.712Z,52.69
2019-05-30T06:48:18.685Z,52.18
2019-05-30T06:49:18.679Z,52.48
2019-05-30T06:50:18.686Z,51.87
2019-05-30T06:51:18.662Z,52.56
2019-05-30T06:52:18.641Z,52.56
2019-05-30T06:53:18.631Z,52.25
2019-05-30T06:54:18.619Z,52.36
2019-05-30T06:55:18.648Z,52.36
2019-05-30T06:56:18.598Z,50.63
2019-05-30T06:57:18.586Z,50.53
2019-05-30T06:58:18.578Z,50.33
2019-05-30T06:59:18.564Z,51.32
2019-05-30T07:00:18.583Z,51.21
2019-05-30T07:01:18.543Z,51.42
2019-05-30T07:02:18.531Z,51.42
2019-05-30T07:03:18.529Z,51.42
2019-05-30T07:04:18.985Z,50.48
2019-05-30T07:05:19.108Z,50.48
2019-05-30T07:06:18.797Z,50.38
2019-05-30T07:07:18.629Z,50.68
2019-05-30T07:08:18.468Z,50.76
2019-05-30T07:09:18.455Z,50.56
2019-05-30T07:10:18.468Z,50.26
2019-05-30T07:11:18.434Z,50.15
2019-05-30T07:12:18.424Z,48.23
2019-05-30T07:13:18.413Z,48.43
2019-05-30T07:14:18.403Z,49.24
2019-05-30T07:15:18.425Z,48.41
2019-05-30T07:16:18.383Z,48.41
2019-05-30T07:17:18.376Z,48.31
2019-05-30T07:18:18.362Z,48.21
2019-05-30T07:19:18.349Z,48.11
2019-05-30T07:20:18.361Z,48.08
2019-05-30T07:21:18.329Z,46.48
2019-05-30T07:22:18.316Z,46.69
2019-05-30T07:23:18.306Z,44.84
2019-05-30T07:24:18.295Z,45.57
2019-05-30T07:25:18.322Z,45.25
2019-05-30T07:26:18.277Z,45.55
2019-05-30T07:27:18.264Z,44.44
2019-05-30T07:28:18.252Z,44.64
2019-05-30T07:29:18.243Z,44.13
2019-05-30T07:30:18.257Z,44.34
2019-05-30T07:31:18.220Z,44.01
2019-05-30T07:32:18.210Z,43.51
2019-05-30T07:33:18.198Z,43.51
2019-05-30T07:34:18.188Z,43.49
2019-05-30T07:35:18.230Z,43.69
2019-05-30T07:36:18.194Z,42.98
2019-05-30T07:37:18.164Z,42.96
2019-05-30T07:38:18.151Z,42.76
2019-05-30T07:39:18.133Z,42.55
2019-05-30T07:40:19.665Z,42.66
2019-05-30T07:41:18.113Z,42.46
2019-05-30T07:42:18.105Z,42.46
2019-05-30T07:43:18.134Z,42.86
2019-05-30T07:44:18.088Z,42.86
2019-05-30T07:45:18.093Z,42.25
2019-05-30T07:46:18.057Z,42.76
2019-05-30T07:47:18.049Z,42.54
2019-05-30T07:48:18.056Z,42.94
2019-05-30T07:49:18.024Z,41.22
2019-05-30T07:50:18.040Z,40.21
2019-05-30T07:51:18.002Z,40.90
2019-05-30T07:52:17.994Z,41.32
2019-05-30T07:53:17.981Z,41.12
2019-05-30T07:54:17.969Z,39.69
2019-05-30T07:55:17.986Z,40.30
2019-05-30T07:56:17.948Z,39.69
2019-05-30T07:57:17.938Z,40.09
2019-05-30T07:58:17.928Z,39.99
2019-05-30T07:59:17.916Z,40.09
2019-05-30T08:00:17.931Z,40.17
2019-05-30T08:01:17.893Z,40.08
2019-05-30T08:02:17.887Z,40.78
2019-05-30T08:03:17.873Z,40.17
2019-05-30T08:04:17.866Z,40.08
2019-05-30T08:05:24.265Z,39.95
2019-05-30T08:06:18.839Z,39.87
2019-05-30T08:07:17.830Z,40.16
2019-05-30T08:08:17.820Z,40.16
2019-05-30T08:09:17.813Z,39.55
2019-05-30T08:10:17.835Z,40.16
2019-05-30T08:11:17.789Z,39.95
2019-05-30T08:12:17.776Z,39.63
2019-05-30T08:13:17.770Z,40.44
2019-05-30T08:14:17.754Z,39.83
2019-05-30T08:15:17.768Z,39.23
2019-05-30T08:16:17.734Z,40.14
2019-05-30T08:17:17.722Z,39.72
2019-05-30T08:18:17.710Z,39.33
2019-05-30T08:19:17.700Z,40.12
2019-05-30T08:20:17.715Z,39.23
2019-05-30T08:21:17.680Z,39.73
2019-05-30T08:22:17.668Z,40.23
2019-05-30T08:23:17.661Z,40.32
2019-05-30T08:24:17.646Z,41.05
2019-05-30T08:25:17.666Z,40.12
2019-05-30T08:26:18.423Z,40.42
2019-05-30T08:27:17.615Z,39.31
2019-05-30T08:28:17.604Z,39.51
2019-05-30T08:29:17.591Z,39.92
2019-05-30T08:30:17.606Z,39.90
2019-05-30T08:31:17.574Z,39.51
2019-05-30T08:32:17.562Z,40.00
2019-05-30T08:33:17.548Z,40.40
2019-05-30T08:34:17.537Z,39.70
2019-05-30T08:35:17.555Z,39.90
2019-05-30T08:36:17.518Z,40.10
2019-05-30T08:37:17.510Z,39.39
2019-05-30T08:38:17.500Z,39.17
2019-05-30T08:39:17.486Z,38.97
2019-05-30T08:40:17.506Z,39.28
2019-05-30T08:41:17.463Z,38.47
2019-05-30T08:42:17.455Z,38.67
2019-05-30T08:43:17.445Z,39.28
2019-05-30T08:44:17.432Z,38.77
2019-05-30T08:45:17.451Z,39.48
2019-05-30T08:46:17.413Z,39.68
2019-05-30T08:47:17.402Z,38.77
2019-05-30T08:48:17.392Z,39.28
2019-05-30T08:49:17.380Z,39.58
2019-05-30T08:50:17.394Z,39.25
2019-05-30T08:51:17.359Z,38.75
2019-05-30T08:52:17.348Z,39.15
2019-05-30T08:53:17.340Z,39.36
2019-05-30T08:54:17.330Z,39.65
2019-05-30T08:55:17.344Z,38.95
2019-05-30T08:56:17.308Z,38.45
2019-05-30T08:57:17.293Z,38.65
2019-05-30T08:58:17.290Z,38.95
2019-05-30T08:59:17.273Z,38.43
2019-05-30T09:00:17.289Z,37.63
2019-05-30T09:01:17.252Z,37.93
2019-05-30T09:02:17.241Z,38.43
2019-05-30T09:03:17.230Z,39.03
2019-05-30T09:04:17.224Z,39.62
2019-05-30T09:05:17.234Z,39.01
2019-05-30T09:06:17.196Z,37.81
2019-05-30T09:07:17.200Z,37.51
2019-05-30T09:08:17.181Z,37.63
2019-05-30T09:09:17.164Z,37.71
2019-05-30T09:10:17.180Z,38.11
2019-05-30T09:11:17.141Z,37.83
2019-05-30T09:12:17.133Z,38.01
2019-05-30T09:13:17.131Z,37.81
2019-05-30T09:14:17.148Z,38.01
2019-05-30T09:15:17.097Z,38.21
2019-05-30T09:16:17.086Z,38.42
2019-05-30T09:17:17.075Z,37.89
2019-05-30T09:18:17.064Z,37.69
2019-05-30T09:19:17.053Z,38.29
2019-05-30T09:20:17.083Z,38.29
2019-05-30T09:21:17.030Z,37.89
2019-05-30T09:22:17.020Z,37.89
2019-05-30T09:23:17.017Z,37.39
2019-05-30T09:24:17.035Z,38.01
2019-05-30T09:25:16.986Z,37.49
2019-05-30T09:26:17.016Z,37.79
2019-05-30T09:27:16.971Z,38.09
2019-05-30T09:28:16.954Z,37.79
2019-05-30T09:29:16.947Z,37.67
2019-05-30T09:30:16.936Z,37.67
2019-05-30T09:31:16.923Z,37.37
2019-05-30T09:32:16.934Z,37.77
2019-05-30T09:33:16.899Z,37.76
2019-05-30T09:34:16.889Z,37.15
2019-05-30T09:35:16.880Z,36.35
2019-05-30T09:36:16.872Z,36.85
2019-05-30T09:37:16.895Z,36.45
2019-05-30T09:38:16.848Z,37.34
2019-05-30T09:39:16.843Z,36.73
2019-05-30T09:40:16.827Z,36.23
2019-05-30T09:41:16.813Z,36.05
2019-05-30T09:42:16.804Z,36.45
2019-05-30T09:43:16.831Z,37.55
2019-05-30T09:44:16.783Z,36.63
2019-05-30T09:45:17.091Z,36.83
2019-05-30T09:46:16.761Z,35.91
2019-05-30T09:47:16.754Z,35.71
2019-05-30T09:48:16.742Z,35.33
2019-05-30T09:49:16.759Z,34.83
2019-05-30T09:50:16.720Z,35.55
2019-05-30T09:51:16.722Z,35.55
2019-05-30T09:52:16.744Z,35.85
2019-05-30T09:53:16.689Z,35.35
2019-05-30T09:54:16.715Z,35.53
2019-05-30T09:55:16.667Z,36.15
2019-05-30T09:56:16.657Z,36.03
2019-05-30T09:57:16.658Z,35.01
2019-05-30T09:58:16.645Z,35.01
2019-05-30T09:59:16.623Z,34.91
2019-05-30T10:00:16.656Z,36.02
2019-05-30T10:01:16.603Z,35.71
2019-05-30T10:02:16.592Z,35.11
2019-05-30T10:03:16.578Z,35.01
2019-05-30T10:04:16.570Z,35.11
2019-05-30T10:05:16.559Z,34.19
2019-05-30T10:06:28.587Z,35.30
2019-05-30T10:07:17.536Z,34.59
2019-05-30T10:08:16.527Z,34.49
2019-05-30T10:09:16.518Z,33.79
2019-05-30T10:10:16.509Z,34.69
2019-05-30T10:11:16.495Z,34.19
2019-05-30T10:12:16.509Z,34.59
2019-05-30T10:13:16.472Z,33.99
2019-05-30T10:14:16.464Z,33.69
2019-05-30T10:15:16.457Z,35.10
2019-05-30T10:16:16.452Z,34.49
2019-05-30T10:17:16.473Z,33.49
2019-05-30T10:18:16.422Z,34.09
2019-05-30T10:19:16.412Z,33.69
2019-05-30T10:20:16.398Z,35.19
2019-05-30T10:21:16.389Z,34.59
2019-05-30T10:22:16.378Z,34.28
2019-05-30T10:23:16.403Z,33.89
2019-05-30T10:24:16.359Z,34.59
2019-05-30T10:25:16.342Z,34.80
2019-05-30T10:26:16.335Z,33.99
2019-05-30T10:27:16.324Z,34.49
2019-05-30T10:28:16.314Z,34.99
2019-05-30T10:29:16.339Z,34.89
2019-05-30T10:30:16.293Z,34.78
2019-05-30T10:31:16.286Z,34.29
2019-05-30T10:32:16.277Z,34.69
2019-05-30T10:33:16.261Z,34.80
2019-05-30T10:34:16.289Z,34.59
2019-05-30T10:35:16.270Z,33.89
2019-05-30T10:36:19.368Z,34.88
2019-05-30T10:37:16.216Z,34.78
2019-05-30T10:38:19.665Z,34.98
2019-05-30T10:39:16.192Z,34.98
2019-05-30T10:40:16.218Z,34.06
2019-05-30T10:41:16.169Z,34.66
2019-05-30T10:42:16.156Z,34.46
2019-05-30T10:43:16.145Z,34.86
2019-05-30T10:44:16.136Z,34.36
2019-05-30T10:45:16.126Z,35.14
2019-05-30T10:46:16.153Z,34.53
2019-05-30T10:47:16.103Z,33.93
2019-05-30T10:48:16.090Z,33.44
2019-05-30T10:49:16.084Z,34.44
2019-05-30T10:50:16.076Z,33.84
2019-05-30T10:51:16.062Z,34.34
2019-05-30T10:52:16.081Z,33.84
2019-05-30T10:53:16.040Z,34.34
2019-05-30T10:54:16.029Z,34.34
2019-05-30T10:55:16.020Z,33.84
2019-05-30T10:56:16.010Z,33.54
2019-05-30T10:57:16.023Z,34.03
2019-05-30T10:58:15.987Z,33.24
2019-05-30T10:59:15.975Z,34.24
2019-05-30T11:00:15.964Z,34.24
2019-05-30T11:01:15.961Z,33.34
2019-05-30T11:02:15.979Z,33.04
2019-05-30T11:03:15.933Z,33.44
2019-05-30T11:04:15.924Z,33.44
2019-05-30T11:05:15.912Z,33.24
2019-05-30T11:06:15.902Z,34.03
2019-05-30T11:07:15.892Z,33.61
2019-05-30T11:08:15.919Z,32.61
2019-05-30T11:09:15.870Z,33.21
2019-05-30T11:10:15.861Z,33.21
2019-05-30T11:11:15.849Z,33.00
2019-05-30T11:12:15.841Z,32.20
2019-05-30T11:13:15.828Z,32.98
2019-05-30T11:14:15.854Z,32.68
2019-05-30T11:15:15.808Z,31.96
2019-05-30T11:16:15.798Z,31.54
2019-05-30T11:17:15.787Z,32.20
2019-05-30T11:18:15.780Z,30.68
2019-05-30T11:19:15.766Z,29.86
2019-05-30T11:20:15.783Z,29.25
2019-05-30T11:21:15.745Z,28.66
2019-05-30T11:22:15.733Z,28.27
2019-05-30T11:23:15.723Z,29.58
2019-05-30T11:24:15.714Z,29.37
2019-05-30T11:25:15.740Z,28.96
2019-05-30T11:26:15.692Z,28.83
2019-05-30T11:27:15.773Z,29.03
2019-05-30T11:28:15.669Z,28.72
2019-05-30T11:29:15.658Z,28.70
2019-05-30T11:30:15.647Z,28.09
2019-05-30T11:31:15.682Z,26.78
2019-05-30T11:32:15.628Z,27.37
2019-05-30T11:33:15.616Z,27.06
2019-05-30T11:34:15.606Z,26.64
2019-05-30T11:35:15.597Z,26.84
2019-05-30T11:36:15.585Z,26.56
2019-05-30T11:37:18.790Z,26.75
2019-05-30T11:38:15.561Z,26.25
2019-05-30T11:39:15.555Z,26.06
2019-05-30T11:40:15.543Z,25.95
2019-05-30T11:41:15.532Z,26.53
2019-05-30T11:42:15.556Z,26.03
2019-05-30T11:43:15.510Z,25.93
2019-05-30T11:44:15.501Z,26.45
2019-05-30T11:45:15.489Z,26.99
2019-05-30T11:46:15.479Z,27.94
2019-05-30T11:47:15.466Z,28.16
2019-05-30T11:48:15.494Z,28.62
2019-05-30T11:49:15.447Z,27.88
2019-05-30T11:50:15.436Z,27.04
2019-05-30T11:51:15.428Z,25.84
2019-05-30T11:52:15.415Z,26.03
2019-05-30T11:53:15.440Z,26.03
2019-05-30T11:54:15.393Z,26.21
2019-05-30T11:55:15.382Z,26.73
2019-05-30T11:56:15.374Z,26.51
2019-05-30T11:57:15.362Z,27.01
2019-05-30T11:58:19.218Z,26.23
2019-05-30T11:59:15.379Z,25.73
2019-05-30T12:00:15.332Z,26.61
2019-05-30T12:01:15.324Z,25.91
2019-05-30T12:02:15.313Z,25.60
2019-05-30T12:03:15.302Z,24.99
2019-05-30T12:04:15.289Z,24.57
2019-05-30T12:05:15.304Z,24.66
2019-05-30T12:06:15.272Z,24.44
2019-05-30T12:07:15.259Z,24.56
2019-05-30T12:08:15.259Z,24.57
2019-05-30T12:09:15.239Z,25.28
2019-05-30T12:10:15.267Z,25.37
2019-05-30T12:11:15.222Z,25.18
2019-05-30T12:12:15.207Z,24.67
2019-05-30T12:13:15.197Z,24.95
2019-05-30T12:14:15.193Z,23.65
2019-05-30T12:15:15.175Z,23.64
2019-05-30T12:16:15.207Z,23.75
2019-05-30T12:17:15.155Z,24.55
2019-05-30T12:18:15.147Z,24.60
2019-05-30T12:19:15.136Z,24.66
2019-05-30T12:20:15.124Z,24.46
2019-05-30T12:21:15.114Z,24.26
2019-05-30T12:22:15.130Z,24.88
2019-05-30T12:23:15.094Z,24.58
2019-05-30T12:24:15.086Z,25.42
2019-05-30T12:25:15.087Z,25.59
2019-05-30T12:26:15.104Z,24.68
2019-05-30T12:27:15.056Z,25.51
2019-05-30T12:28:15.043Z,25.34
2019-05-30T12:29:15.034Z,26.44
2019-05-30T12:30:15.023Z,25.51
2019-05-30T12:31:15.014Z,25.28
2019-05-30T12:32:15.038Z,23.96
2019-05-30T12:33:14.993Z,23.55
2019-05-30T12:34:14.983Z,23.15
2019-05-30T12:35:14.971Z,22.94
2019-05-30T12:36:14.964Z,23.03
2019-05-30T12:37:14.951Z,23.54
2019-05-30T12:38:14.966Z,23.27
2019-05-30T12:39:14.934Z,23.95
2019-05-30T12:40:14.921Z,23.13
2019-05-30T12:41:14.911Z,23.22
2019-05-30T12:42:14.900Z,23.32
2019-05-30T12:43:14.928Z,22.83
2019-05-30T12:44:14.881Z,23.14
2019-05-30T12:45:14.872Z,23.74
2019-05-30T12:46:14.859Z,23.85
2019-05-30T12:47:14.872Z,23.95
2019-05-30T12:48:14.839Z,24.28
2019-05-30T12:49:14.869Z,24.80
2019-05-30T12:50:16.840Z,24.60
2019-05-30T12:51:14.810Z,24.61
2019-05-30T12:52:14.798Z,25.31
2019-05-30T12:53:14.790Z,25.50